Time;durP1;ratioP1;P1;durP2;ratioP2;P2;SDS_P1;SDS_P2;PMS_P1;PMS_P2;Temp;Humidity;BMP_temperature;BMP_pressure;BME280_temperature;BME280_humidity;BME280_pressure;Samples;Min_cycle;Max_cycle;Signal;HPM_P1;HPM_P2
2023/03/04 00:01:49;;;;;;;12.55;7.95;;;21.50;99.90;;;;;;5017348;28;20026;-50
2023/03/04 00:04:15;;;;;;;13.40;7.88;;;21.50;99.90;;;;;;5021597;28;20033;-47
2023/03/04 00:06:41;;;;;;;17.75;9.20;;;21.50;99.90;;;;;;5012780;28;20030;-46
2023/03/04 00:09:06;;;;;;;13.73;8.35;;;21.50;99.90;;;;;;5028493;28;20041;-46
2023/03/04 00:11:32;;;;;;;13.55;8.70;;;21.40;99.90;;;;;;5029835;28;20387;-47
2023/03/04 00:13:58;;;;;;;12.93;7.80;;;21.40;99.90;;;;;;5028282;28;20041;-47
2023/03/04 00:16:27;;;;;;;11.93;7.60;;;21.40;99.90;;;;;;5032986;28;20167;-47
2023/03/04 00:18:56;;;;;;;12.05;7.68;;;21.40;99.90;;;;;;5032939;28;20396;-47
2023/03/04 00:21:23;;;;;;;10.73;7.53;;;21.40;99.90;;;;;;5033788;28;20017;-47
2023/03/04 00:23:49;;;;;;;13.85;8.45;;;21.40;99.90;;;;;;4999082;28;20090;-47
2023/03/04 00:26:15;;;;;;;16.30;7.68;;;21.40;99.90;;;;;;5033676;28;20112;-47
2023/03/04 00:28:41;;;;;;;10.18;6.90;;;21.40;99.90;;;;;;5033713;28;20040;-47
2023/03/04 00:31:07;;;;;;;11.85;7.30;;;21.40;99.90;;;;;;5033428;28;20031;-47
2023/03/04 00:33:33;;;;;;;12.75;7.85;;;21.40;99.90;;;;;;5022623;28;20022;-47
2023/03/04 00:36:00;;;;;;;14.23;8.20;;;21.40;99.90;;;;;;5031654;28;20097;-47
2023/03/04 00:38:26;;;;;;;11.35;7.80;;;21.30;99.90;;;;;;5033184;28;20025;-47
2023/03/04 00:40:52;;;;;;;12.75;8.00;;;21.40;99.90;;;;;;5028855;28;20021;-48
2023/03/04 00:43:18;;;;;;;15.07;8.73;;;21.30;99.90;;;;;;5014016;28;20022;-48
2023/03/04 00:45:44;;;;;;;13.88;7.80;;;21.30;99.90;;;;;;5023974;28;20448;-47
2023/03/04 00:48:10;;;;;;;14.25;7.90;;;21.30;99.90;;;;;;5013656;28;20084;-46
2023/03/04 00:50:36;;;;;;;12.13;6.80;;;21.30;99.90;;;;;;5013761;28;20562;-47
2023/03/04 00:53:02;;;;;;;11.20;7.47;;;21.30;99.90;;;;;;5030791;28;20120;-47
2023/03/04 00:55:28;;;;;;;10.70;7.05;;;21.30;99.90;;;;;;5033145;28;20018;-47
2023/03/04 00:57:54;;;;;;;11.82;7.82;;;21.30;99.90;;;;;;5024267;28;20060;-46
2023/03/04 01:00:20;;;;;;;10.23;7.28;;;21.20;99.90;;;;;;5014093;28;20178;-47
2023/03/04 01:02:46;;;;;;;9.98;6.80;;;21.20;99.90;;;;;;5029264;28;20507;-46
2023/03/04 01:05:12;;;;;;;12.60;8.00;;;21.30;99.90;;;;;;5032953;28;20135;-46
2023/03/04 01:07:37;;;;;;;12.57;8.52;;;21.20;99.90;;;;;;5016465;28;20113;-46
2023/03/04 01:10:06;;;;;;;12.77;7.72;;;21.20;99.90;;;;;;5013102;28;20107;-46
2023/03/04 01:12:32;;;;;;;11.20;7.95;;;21.20;99.90;;;;;;5011850;28;20112;-47
2023/03/04 01:14:58;;;;;;;14.38;7.68;;;21.20;99.90;;;;;;5015136;28;20109;-47
2023/03/04 01:17:24;;;;;;;11.68;7.35;;;21.20;99.90;;;;;;5032932;28;20022;-46
2023/03/04 01:19:49;;;;;;;11.90;8.10;;;21.20;99.90;;;;;;5033019;28;20036;-47
2023/03/04 01:22:17;;;;;;;10.50;6.80;;;21.10;99.90;;;;;;5027714;28;20072;-46
2023/03/04 01:24:44;;;;;;;10.13;6.93;;;21.10;99.90;;;;;;5014828;28;20021;-47
2023/03/04 01:27:10;;;;;;;14.07;7.78;;;21.10;99.90;;;;;;5032707;28;20148;-48
2023/03/04 01:29:36;;;;;;;11.70;7.35;;;21.10;99.90;;;;;;5032545;28;20019;-47
2023/03/04 01:32:03;;;;;;;11.30;7.00;;;21.10;99.90;;;;;;5032378;28;20037;-47
2023/03/04 01:34:28;;;;;;;14.05;7.53;;;21.10;99.90;;;;;;5030883;28;20072;-47
2023/03/04 01:36:54;;;;;;;12.18;6.97;;;21.10;99.90;;;;;;5021102;28;20017;-47
2023/03/04 01:39:20;;;;;;;13.90;8.13;;;21.00;99.90;;;;;;5018178;28;20034;-46
2023/03/04 01:41:46;;;;;;;14.93;8.38;;;21.10;99.90;;;;;;5030977;28;20017;-46
2023/03/04 01:44:12;;;;;;;9.52;6.85;;;21.00;99.90;;;;;;5032482;28;20041;-46
2023/03/04 01:46:41;;;;;;;10.95;6.60;;;21.10;99.90;;;;;;5032298;28;20033;-46
2023/03/04 01:49:11;;;;;;;11.05;6.85;;;21.00;99.90;;;;;;5032298;28;20100;-46
2023/03/04 01:51:37;;;;;;;10.68;7.32;;;21.00;99.90;;;;;;5032099;28;20057;-47
2023/03/04 01:54:03;;;;;;;8.57;5.97;;;21.00;99.90;;;;;;5032353;28;20538;-47
2023/03/04 01:56:37;;;;;;;10.38;6.53;;;21.00;99.90;;;;;;5012694;28;20033;-46
2023/03/04 02:01:38;;;;;;;8.30;5.95;;;20.90;99.90;;;;;;5031340;28;20053;-51
2023/03/04 02:04:04;;;;;;;10.73;6.75;;;20.90;99.90;;;;;;5014559;28;20087;-53
2023/03/04 02:06:30;;;;;;;10.18;6.43;;;20.90;99.90;;;;;;5032161;28;20108;-51
2023/03/04 02:08:56;;;;;;;8.98;6.00;;;20.90;99.90;;;;;;5032497;28;20104;-51
2023/03/04 02:11:22;;;;;;;9.65;5.75;;;20.90;99.90;;;;;;5032334;28;20029;-52
2023/03/04 02:13:47;;;;;;;9.38;6.28;;;20.90;99.90;;;;;;5032216;28;20025;-51
2023/03/04 02:16:13;;;;;;;9.70;6.10;;;20.90;99.90;;;;;;5032150;28;20033;-51
2023/03/04 02:18:39;;;;;;;7.63;5.85;;;20.90;99.90;;;;;;5032249;28;20018;-53
2023/03/04 02:21:22;;;;;;;9.10;6.35;;;20.90;99.90;;;;;;5032199;28;20024;-51
2023/03/04 02:24:14;;;;;;;7.13;5.65;;;20.80;99.90;;;;;;5032025;28;20025;-52
2023/03/04 02:26:42;;;;;;;10.88;6.15;;;20.80;99.90;;;;;;5032035;28;20128;-51
2023/03/04 02:29:10;;;;;;;9.70;5.97;;;20.80;99.90;;;;;;5032031;28;20037;-53
2023/03/04 02:31:48;;;;;;;7.85;5.50;;;20.80;99.90;;;;;;5031914;28;20479;-52
2023/03/04 02:34:16;;;;;;;9.13;5.75;;;20.80;99.90;;;;;;5014412;28;20036;-53
2023/03/04 02:36:42;;;;;;;;;;;20.80;99.90;;;;;;5032416;28;20079;-52
2023/03/04 02:39:33;;;;;;;9.23;6.32;;;20.80;99.90;;;;;;5031823;28;19905;-52
2023/03/04 02:41:59;;;;;;;7.30;5.57;;;20.80;99.90;;;;;;5026878;28;20491;-52
2023/03/04 02:44:33;;;;;;;8.23;6.20;;;20.80;99.90;;;;;;5032277;28;20096;-52
2023/03/04 02:46:59;;;;;;;7.32;5.28;;;20.80;99.90;;;;;;5015390;28;20383;-53
2023/03/04 02:49:27;;;;;;;7.25;5.45;;;20.70;99.90;;;;;;5014328;28;20049;-54
2023/03/04 02:51:58;;;;;;;;;;;20.70;99.90;;;;;;5032308;28;20042;-54
2023/03/04 02:54:23;;;;;;;7.25;4.90;;;20.70;99.90;;;;;;5014271;28;19912;-53
2023/03/04 02:56:55;;;;;;;8.40;5.82;;;20.70;99.90;;;;;;5013988;28;20025;-53
2023/03/04 02:59:22;;;;;;;6.55;4.68;;;20.70;99.90;;;;;;5032144;28;20013;-54
2023/03/04 03:01:48;;;;;;;8.73;5.65;;;20.70;99.90;;;;;;5031801;28;20594;-53
2023/03/04 03:04:14;;;;;;;11.90;6.13;;;20.70;99.90;;;;;;5031644;28;20376;-54
2023/03/04 03:06:40;;;;;;;6.78;4.78;;;20.70;99.90;;;;;;5031769;28;20028;-53
2023/03/04 03:09:07;;;;;;;6.68;4.95;;;20.60;99.90;;;;;;5031805;28;20026;-54
2023/03/04 03:11:34;;;;;;;7.70;4.22;;;20.60;99.90;;;;;;5031397;28;20041;-53
2023/03/04 03:14:00;;;;;;;7.38;5.10;;;20.60;99.90;;;;;;5031534;28;20101;-52
2023/03/04 03:16:26;;;;;;;7.40;5.30;;;20.60;99.90;;;;;;5031920;28;20036;-50
2023/03/04 03:18:52;;;;;;;7.90;5.25;;;20.60;99.90;;;;;;5031558;28;20029;-51
2023/03/04 03:21:18;;;;;;;7.15;5.30;;;20.60;99.90;;;;;;5014031;28;20093;-51
2023/03/04 03:23:43;;;;;;;7.97;5.18;;;20.60;99.90;;;;;;5031387;28;20379;-51
2023/03/04 03:26:09;;;;;;;6.97;4.60;;;20.60;99.90;;;;;;5031442;28;20040;-51
2023/03/04 03:28:35;;;;;;;7.78;4.88;;;20.50;99.90;;;;;;5031552;28;20021;-51
2023/03/04 03:31:01;;;;;;;8.07;4.60;;;20.60;99.90;;;;;;5031162;28;20109;-53
2023/03/04 03:33:27;;;;;;;8.57;5.30;;;20.50;99.90;;;;;;5031507;28;20096;-53
2023/03/04 03:35:53;;;;;;;7.93;5.18;;;20.50;99.90;;;;;;5034848;28;20428;-53
2023/03/04 03:38:19;;;;;;;7.93;4.75;;;20.50;99.90;;;;;;5034901;28;20053;-51
2023/03/04 03:40:44;;;;;;;7.72;3.97;;;20.60;99.90;;;;;;5034865;28;20033;-53
2023/03/04 03:43:10;;;;;;;7.20;4.63;;;20.50;99.90;;;;;;5034910;28;20073;-52
2023/03/04 03:45:36;;;;;;;9.55;4.28;;;20.50;99.90;;;;;;5034851;28;20060;-52
2023/03/04 03:48:02;;;;;;;5.82;4.28;;;20.50;99.90;;;;;;5016890;28;20028;-52
2023/03/04 03:50:28;;;;;;;6.63;4.57;;;20.50;99.90;;;;;;5035031;28;20022;-52
2023/03/04 03:52:54;;;;;;;5.85;4.13;;;20.50;99.90;;;;;;5016812;28;20406;-52
2023/03/04 03:55:20;;;;;;;6.82;3.90;;;20.50;99.90;;;;;;5034759;28;20021;-53
2023/03/04 03:57:46;;;;;;;6.85;4.13;;;20.50;99.90;;;;;;5016721;28;20033;-52
2023/03/04 04:00:13;;;;;;;7.45;4.53;;;20.50;99.90;;;;;;5034918;28;20048;-52
2023/03/04 04:02:39;;;;;;;6.30;4.22;;;20.50;99.90;;;;;;5034400;28;20033;-52
2023/03/04 04:05:06;;;;;;;7.50;4.97;;;20.50;99.90;;;;;;5034551;28;20056;-53
2023/03/04 04:07:31;;;;;;;8.13;5.15;;;20.50;99.90;;;;;;5016824;28;20394;-52
2023/03/04 04:09:57;;;;;;;7.07;4.15;;;20.50;99.90;;;;;;5034625;28;20025;-52
2023/03/04 04:12:23;;;;;;;6.88;4.43;;;20.40;99.90;;;;;;5034150;28;20034;-52
2023/03/04 04:14:49;;;;;;;6.65;4.13;;;20.40;99.90;;;;;;5034161;28;20467;-52
2023/03/04 04:17:14;;;;;;;8.35;5.15;;;20.40;99.90;;;;;;5032459;28;20444;-52
2023/03/04 04:19:40;;;;;;;7.40;4.30;;;20.40;99.90;;;;;;5033783;28;20029;-52
2023/03/04 04:22:07;;;;;;;5.90;4.38;;;20.50;99.90;;;;;;5016046;28;20029;-53
2023/03/04 04:24:35;;;;;;;5.18;3.58;;;20.40;99.90;;;;;;5029946;28;20437;-52
2023/03/04 04:27:01;;;;;;;7.53;4.35;;;20.40;99.90;;;;;;5016407;28;20475;-54
2023/03/04 04:29:27;;;;;;;5.22;3.67;;;20.40;99.90;;;;;;5024889;28;20022;-53
2023/03/04 04:31:52;;;;;;;7.07;4.53;;;20.40;99.90;;;;;;5015855;28;20037;-53
2023/03/04 04:34:18;;;;;;;6.15;4.65;;;20.40;99.90;;;;;;5033733;28;20022;-52
2023/03/04 04:36:44;;;;;;;6.75;4.38;;;20.40;99.90;;;;;;5033678;28;20027;-51
2023/03/04 04:39:10;;;;;;;6.40;4.00;;;20.40;99.90;;;;;;5033832;28;20103;-53
2023/03/04 04:41:38;;;;;;;6.13;4.40;;;20.40;99.90;;;;;;5033726;28;20028;-53
2023/03/04 04:44:04;;;;;;;7.07;3.97;;;20.40;99.90;;;;;;5014836;28;20030;-52
2023/03/04 04:46:30;;;;;;;6.68;4.10;;;20.40;99.90;;;;;;5005666;28;20541;-52
2023/03/04 04:48:56;;;;;;;8.48;4.07;;;20.40;99.90;;;;;;5015631;28;20124;-52
2023/03/04 04:51:22;;;;;;;6.53;4.05;;;20.40;99.90;;;;;;5033313;28;20056;-52
2023/03/04 04:53:48;;;;;;;5.82;3.83;;;20.30;99.90;;;;;;5033107;28;20451;-52
2023/03/04 04:56:20;;;;;;;5.75;4.03;;;20.30;99.90;;;;;;5026075;28;20068;-52
2023/03/04 04:58:46;;;;;;;5.95;4.03;;;20.30;99.90;;;;;;5013273;28;20052;-53
2023/03/04 05:01:13;;;;;;;6.38;3.90;;;20.30;99.90;;;;;;5044903;23;20053;-50
2023/03/04 05:03:40;;;;;;;4.63;3.50;;;20.30;99.90;;;;;;5032223;28;20029;-51
2023/03/04 05:06:08;;;;;;;6.57;4.00;;;20.30;99.90;;;;;;5020914;28;20033;-51
2023/03/04 05:08:34;;;;;;;5.53;3.65;;;20.30;99.90;;;;;;5018791;28;20499;-51
2023/03/04 05:11:01;;;;;;;5.25;3.72;;;20.30;99.90;;;;;;5019514;28;20383;-53
2023/03/04 05:13:27;;;;;;;5.72;3.55;;;20.30;99.90;;;;;;5032812;28;20430;-51
2023/03/04 05:15:54;;;;;;;5.30;3.65;;;20.30;99.90;;;;;;5013278;28;20014;-51
2023/03/04 05:18:23;;;;;;;5.60;3.50;;;20.30;99.90;;;;;;5024773;28;20029;-51
2023/03/04 05:20:57;;;;;;;6.90;4.45;;;20.30;99.90;;;;;;5032590;28;20503;-50
2023/03/04 05:23:23;;;;;;;6.97;3.97;;;20.30;99.90;;;;;;5032647;28;20092;-51
2023/03/04 05:25:50;;;;;;;6.00;3.90;;;20.30;99.90;;;;;;5032692;28;20033;-51
2023/03/04 05:28:16;;;;;;;5.45;3.55;;;20.30;99.90;;;;;;5018358;28;20388;-51
2023/03/04 05:30:43;;;;;;;6.43;4.13;;;20.30;99.90;;;;;;5020457;28;20026;-51
2023/03/04 05:33:11;;;;;;;4.93;3.33;;;20.30;99.90;;;;;;5019866;28;20030;-52
2023/03/04 05:35:38;;;;;;;;;;;20.30;99.90;;;;;;5014963;28;20099;-51
2023/03/04 05:38:05;;;;;;;7.13;3.83;;;20.30;99.90;;;;;;5032715;28;19904;-52
2023/03/04 05:40:31;;;;;;;8.18;4.00;;;20.30;99.90;;;;;;5014547;28;20037;-51
2023/03/04 05:42:57;;;;;;;4.18;3.25;;;20.20;99.90;;;;;;5032384;28;20490;-52
2023/03/04 05:45:23;;;;;;;5.68;3.90;;;20.20;99.90;;;;;;5032155;28;20021;-51
2023/03/04 05:47:49;;;;;;;5.68;3.95;;;20.20;99.90;;;;;;5022133;28;20057;-52
2023/03/04 05:50:15;;;;;;;5.20;3.90;;;20.20;99.90;;;;;;5012492;28;20054;-52
2023/03/04 05:52:40;;;;;;;7.60;4.25;;;20.20;99.90;;;;;;5012387;28;20451;-52
2023/03/04 05:55:07;;;;;;;5.05;3.72;;;20.20;99.90;;;;;;5014768;28;20032;-52
2023/03/04 05:57:33;;;;;;;5.88;3.92;;;20.20;99.90;;;;;;5014389;28;20080;-51
2023/03/04 05:59:59;;;;;;;6.97;4.05;;;20.20;99.90;;;;;;5031189;28;20065;-53
2023/03/04 06:02:24;;;;;;;4.45;3.60;;;20.20;99.90;;;;;;5012400;28;20044;-52
2023/03/04 06:04:50;;;;;;;5.70;3.63;;;20.20;99.90;;;;;;4994741;28;20018;-52
2023/03/04 06:07:16;;;;;;;6.80;3.65;;;20.10;99.90;;;;;;5031064;28;20022;-52
2023/03/04 06:09:44;;;;;;;4.35;3.58;;;20.10;99.90;;;;;;5031853;28;20079;-52
2023/03/04 06:12:12;;;;;;;;;;;20.20;99.90;;;;;;5032158;28;20036;-51
2023/03/04 06:14:38;;;;;;;5.85;3.70;;;20.10;99.90;;;;;;5021073;28;19973;-52
2023/03/04 06:17:04;;;;;;;5.63;3.83;;;20.10;99.90;;;;;;5029906;28;20038;-52
2023/03/04 06:19:29;;;;;;;5.45;3.30;;;20.10;99.90;;;;;;5032040;28;20025;-52
2023/03/04 06:21:55;;;;;;;5.70;3.75;;;20.10;99.90;;;;;;5014379;28;20048;-53
2023/03/04 06:24:21;;;;;;;6.05;3.42;;;20.10;99.90;;;;;;5004174;28;20075;-52
2023/03/04 06:26:47;;;;;;;6.35;4.00;;;20.10;99.90;;;;;;5018733;28;20033;-52
2023/03/04 06:29:13;;;;;;;5.60;4.15;;;20.10;99.90;;;;;;5014350;28;20068;-52
2023/03/04 06:31:40;;;;;;;7.47;4.40;;;20.10;99.90;;;;;;5031958;28;20044;-53
2023/03/04 06:34:07;;;;;;;9.25;4.70;;;20.10;99.90;;;;;;5012232;28;20108;-52
2023/03/04 06:36:34;;;;;;;6.38;3.95;;;20.10;99.90;;;;;;5012378;28;20034;-52
2023/03/04 06:39:03;;;;;;;4.40;3.40;;;20.10;99.90;;;;;;5031834;28;20045;-51
2023/03/04 06:41:28;;;;;;;5.60;3.55;;;20.10;99.90;;;;;;5031799;28;20021;-52
2023/03/04 06:43:54;;;;;;;6.07;3.88;;;20.00;99.90;;;;;;5013945;28;20120;-52
2023/03/04 06:46:20;;;;;;;5.50;3.90;;;20.00;99.90;;;;;;5020771;28;20026;-52
2023/03/04 06:48:46;;;;;;;4.55;3.72;;;20.00;99.90;;;;;;4998634;28;20396;-52
2023/03/04 06:51:12;;;;;;;4.80;3.60;;;20.00;99.90;;;;;;5031460;28;20112;-52
2023/03/04 06:53:38;;;;;;;6.43;4.05;;;20.00;99.90;;;;;;5028937;28;20109;-52
2023/03/04 06:56:05;;;;;;;5.20;3.67;;;20.00;99.90;;;;;;5021211;28;20483;-52
2023/03/04 06:58:32;;;;;;;5.43;3.83;;;20.00;99.90;;;;;;5030607;28;20030;-52
2023/03/04 07:01:07;;;;;;;5.88;4.03;;;20.00;99.90;;;;;;5011653;28;20085;-52
2023/03/04 07:03:33;;;;;;;5.18;3.88;;;20.00;99.90;;;;;;5012222;28;20057;-52
2023/03/04 07:05:59;;;;;;;5.93;4.35;;;20.00;99.90;;;;;;5024263;28;20057;-52
2023/03/04 07:08:24;;;;;;;6.22;3.67;;;20.00;99.90;;;;;;5012236;28;20041;-52
2023/03/04 07:10:50;;;;;;;5.28;4.05;;;20.00;99.90;;;;;;5017176;28;20025;-52
2023/03/04 07:13:16;;;;;;;6.60;4.07;;;20.00;99.90;;;;;;5034942;28;20034;-52
2023/03/04 07:15:41;;;;;;;5.43;3.72;;;20.00;99.90;;;;;;5035440;28;20028;-52
2023/03/04 07:18:07;;;;;;;6.45;3.97;;;20.00;99.90;;;;;;5017620;28;20030;-52
2023/03/04 07:20:33;;;;;;;6.00;3.88;;;20.00;99.90;;;;;;5034948;28;20029;-52
2023/03/04 07:22:59;;;;;;;5.10;3.67;;;19.90;99.90;;;;;;5022647;28;20092;-52
2023/03/04 07:25:24;;;;;;;4.93;3.75;;;19.90;99.90;;;;;;5028454;28;20026;-52
2023/03/04 07:27:50;;;;;;;5.55;4.18;;;19.90;99.90;;;;;;5007593;28;20036;-52
2023/03/04 07:30:16;;;;;;;5.60;4.07;;;19.90;99.90;;;;;;5034727;28;20093;-52
2023/03/04 07:32:42;;;;;;;4.75;3.40;;;19.90;99.90;;;;;;5034724;28;20068;-52
2023/03/04 07:35:08;;;;;;;5.32;3.80;;;19.90;99.90;;;;;;5000826;28;20424;-52
2023/03/04 07:37:34;;;;;;;4.70;2.90;;;19.90;99.90;;;;;;5025862;28;20108;-52
2023/03/04 07:40:00;;;;;;;6.47;3.97;;;19.90;99.90;;;;;;5010413;28;20479;-52
2023/03/04 07:42:25;;;;;;;5.20;3.58;;;19.90;99.90;;;;;;5014925;28;20076;-52
2023/03/04 07:44:52;;;;;;;5.85;3.58;;;19.90;99.90;;;;;;5014777;28;20372;-52
2023/03/04 07:47:18;;;;;;;5.28;3.65;;;19.90;99.90;;;;;;5014803;28;20022;-52
2023/03/04 07:49:44;;;;;;;6.70;3.70;;;19.90;99.90;;;;;;4997376;28;20022;-52
2023/03/04 07:52:10;;;;;;;4.97;3.58;;;19.90;99.90;;;;;;5026587;28;20486;-52
2023/03/04 07:54:35;;;;;;;4.90;3.63;;;19.90;99.90;;;;;;5026635;28;20503;-52
2023/03/04 07:57:01;;;;;;;5.00;3.35;;;19.90;99.90;;;;;;5032200;28;20043;-52
2023/03/04 07:59:27;;;;;;;5.38;3.50;;;19.90;99.90;;;;;;5022777;28;20025;-52
2023/03/04 08:01:52;;;;;;;5.03;3.72;;;19.90;99.90;;;;;;5022605;28;20037;-52
2023/03/04 08:04:18;;;;;;;4.72;3.20;;;19.90;99.90;;;;;;5025112;28;20033;-52
2023/03/04 08:06:44;;;;;;;4.72;3.60;;;19.90;99.90;;;;;;5028505;28;20029;-52
2023/03/04 08:09:12;;;;;;;4.28;3.50;;;19.90;99.90;;;;;;5034252;28;20029;-52
2023/03/04 08:11:38;;;;;;;4.15;3.25;;;19.90;99.90;;;;;;5028279;28;20407;-52
2023/03/04 08:14:04;;;;;;;5.25;3.72;;;19.90;99.90;;;;;;5029236;28;20056;-53
2023/03/04 08:16:30;;;;;;;8.18;3.67;;;20.00;99.90;;;;;;5003038;28;20076;-52
2023/03/04 08:18:59;;;;;;;7.03;3.60;;;19.90;99.90;;;;;;5033918;28;20422;-52
2023/03/04 08:21:26;;;;;;;7.47;3.90;;;20.00;99.90;;;;;;4998693;28;20100;-53
2023/03/04 08:23:53;;;;;;;5.80;3.15;;;20.00;99.90;;;;;;5014180;28;20088;-52
2023/03/04 08:26:29;;;;;;;5.93;3.58;;;20.00;99.90;;;;;;5006758;28;20026;-52
2023/03/04 08:28:56;;;;;;;5.53;3.60;;;20.00;99.90;;;;;;5033656;28;20353;-52
2023/03/04 08:31:23;;;;;;;5.18;3.22;;;20.10;99.90;;;;;;5012261;28;20021;-52
2023/03/04 08:33:50;;;;;;;6.28;3.20;;;20.10;99.90;;;;;;5018495;28;20070;-52
2023/03/04 08:36:16;;;;;;;6.88;4.03;;;20.10;99.90;;;;;;5013393;28;20020;-51
2023/03/04 08:38:42;;;;;;;5.13;3.28;;;20.10;99.90;;;;;;5013505;28;20029;-51
2023/03/04 08:41:08;;;;;;;13.93;4.10;;;20.10;99.90;;;;;;5013324;28;20026;-52
2023/03/04 08:43:34;;;;;;;6.60;3.53;;;20.10;99.90;;;;;;5025875;28;20055;-52
2023/03/04 08:46:00;;;;;;;7.93;3.60;;;20.20;99.90;;;;;;5033286;28;20092;-52
2023/03/04 08:48:26;;;;;;;6.20;3.65;;;20.20;99.90;;;;;;5025320;28;20112;-51
2023/03/04 08:50:52;;;;;;;8.95;3.30;;;20.20;99.90;;;;;;5013459;28;20454;-51
2023/03/04 08:53:19;;;;;;;10.20;3.47;;;20.20;99.90;;;;;;5013440;28;20386;-51
2023/03/04 08:55:46;;;;;;;6.53;3.38;;;20.30;99.90;;;;;;5013711;28;20418;-51
2023/03/04 08:58:12;;;;;;;5.38;3.60;;;20.30;99.90;;;;;;5013614;28;20033;-51
2023/03/04 09:00:42;;;;;;;5.20;3.30;;;20.30;99.90;;;;;;5027821;28;20499;-52
2023/03/04 09:03:10;;;;;;;6.88;3.35;;;20.30;99.90;;;;;;5020290;28;20076;-51
2023/03/04 09:05:36;;;;;;;8.88;3.88;;;20.30;99.90;;;;;;5026551;28;20029;-51
2023/03/04 09:08:02;;;;;;;13.70;3.78;;;20.30;99.90;;;;;;5013081;28;20156;-51
2023/03/04 09:10:27;;;;;;;7.75;3.97;;;20.30;99.90;;;;;;5022816;28;20060;-51
2023/03/04 09:12:53;;;;;;;8.52;3.75;;;20.30;99.90;;;;;;5019980;28;20031;-51
2023/03/04 09:15:19;;;;;;;11.15;3.67;;;20.30;99.90;;;;;;5018121;28;20022;-52
2023/03/04 09:17:45;;;;;;;12.95;3.38;;;20.40;99.90;;;;;;5000875;28;20047;-51
2023/03/04 09:20:11;;;;;;;8.65;3.85;;;20.40;99.90;;;;;;5016151;28;20065;-51
2023/03/04 09:22:41;;;;;;;6.68;3.47;;;20.40;99.90;;;;;;5024982;28;20029;-51
2023/03/04 09:25:08;;;;;;;6.10;3.42;;;20.40;99.90;;;;;;5026476;28;20032;-51
2023/03/04 09:27:34;;;;;;;7.43;3.63;;;20.40;99.90;;;;;;5013591;28;20026;-51
2023/03/04 09:29:59;;;;;;;6.30;3.90;;;20.40;99.90;;;;;;5016504;28;20025;-50
2023/03/04 09:32:25;;;;;;;8.68;3.13;;;20.40;99.90;;;;;;5020023;28;20042;-50
2023/03/04 09:34:51;;;;;;;8.70;3.60;;;20.40;99.90;;;;;;5016052;28;20029;-51
2023/03/04 09:37:17;;;;;;;5.15;3.33;;;20.40;99.90;;;;;;5017094;28;20698;-52
2023/03/04 09:39:43;;;;;;;7.22;3.25;;;20.40;99.90;;;;;;5010572;28;20021;-52
2023/03/04 09:42:36;;;;;;;10.43;3.80;;;20.40;99.90;;;;;;5016212;28;20022;-50
2023/03/04 09:45:04;;;;;;;6.05;4.00;;;20.40;99.90;;;;;;5014942;28;20392;-52
2023/03/04 09:47:33;;;;;;;7.30;3.72;;;20.40;99.90;;;;;;5021152;28;20376;-51
2023/03/04 09:50:03;;;;;;;7.82;3.63;;;20.40;99.90;;;;;;5017797;28;20069;-51
2023/03/04 09:53:31;;;;;;;5.50;3.55;;;20.40;99.90;;;;;;5017454;28;20549;-50
2023/03/04 09:55:57;;;;;;;10.10;4.85;;;20.40;99.90;;;;;;4941813;28;20027;-52
2023/03/04 09:58:45;;;;;;;11.30;5.30;;;20.40;99.90;;;;;;5002844;28;20045;-51
2023/03/04 10:01:36;;;;;;;8.23;4.57;;;20.40;99.90;;;;;;5020638;28;20042;-51
2023/03/04 10:04:33;;;;;;;11.57;3.97;;;20.40;99.90;;;;;;5017571;28;20117;-50
2023/03/04 10:07:01;;;;;;;6.85;3.97;;;20.40;99.90;;;;;;5016325;28;20079;-56
2023/03/04 10:09:46;;;;;;;13.50;4.47;;;20.40;99.90;;;;;;5023859;28;20439;-56
2023/03/04 10:12:21;;;;;;;5.97;4.20;;;20.40;99.90;;;;;;5023255;28;20030;-55
2023/03/04 10:15:19;;;;;;;8.35;4.28;;;20.40;99.90;;;;;;5019543;28;20021;-56
2023/03/04 10:17:50;;;;;;;9.68;4.28;;;20.40;99.90;;;;;;4975467;28;20055;-56
2023/03/04 10:20:45;;;;;;;7.80;4.60;;;20.40;99.90;;;;;;5015334;28;20029;-56
2023/03/04 10:23:17;;;;;;;7.70;4.53;;;20.40;99.90;;;;;;5012325;28;20046;-56
2023/03/04 10:25:52;;;;;;;9.05;4.95;;;20.40;99.90;;;;;;5024170;28;20428;-56
2023/03/04 10:28:28;;;;;;;7.85;4.65;;;20.40;99.90;;;;;;5024048;28;20402;-57
2023/03/04 10:31:28;;;;;;;6.68;4.80;;;20.30;99.90;;;;;;5023458;28;20025;-56
2023/03/04 10:33:54;;;;;;;7.43;3.85;;;20.40;99.90;;;;;;5007687;28;20115;-57
2023/03/04 10:36:32;;;;;;;6.78;3.22;;;20.40;99.90;;;;;;5019197;28;20025;-57
2023/03/04 10:39:16;;;;;;;7.90;3.53;;;20.30;99.90;;;;;;5019004;28;20030;-57
2023/03/04 10:41:44;;;;;;;30.63;5.45;;;20.30;99.90;;;;;;5015050;28;20025;-57
2023/03/04 10:44:10;;;;;;;6.82;3.97;;;20.30;99.90;;;;;;5022020;28;20057;-57
2023/03/04 10:46:47;;;;;;;5.80;3.50;;;20.30;99.90;;;;;;5029408;28;20013;-57
2023/03/04 10:49:16;;;;;;;8.13;4.60;;;20.20;99.90;;;;;;5015565;28;20034;-57
2023/03/04 10:52:08;;;;;;;14.57;4.63;;;20.20;99.90;;;;;;5014494;28;20502;-57
2023/03/04 10:54:47;;;;;;;18.80;9.93;;;20.10;99.90;;;;;;5027104;28;20172;-58
2023/03/04 10:57:15;;;;;;;16.00;8.82;;;20.10;99.90;;;;;;5026508;28;20033;-58
2023/03/04 10:59:45;;;;;;;15.82;10.02;;;20.10;99.90;;;;;;5016634;28;20045;-57
2023/03/04 11:02:21;;;;;;;14.00;7.07;;;20.10;99.90;;;;;;5017912;28;20033;-57
2023/03/04 11:05:16;;;;;;;9.67;6.67;;;20.10;99.90;;;;;;5021345;28;20067;-57
2023/03/04 11:07:58;;;;;;;11.80;6.72;;;20.10;99.90;;;;;;5024115;28;20160;-57
2023/03/04 11:10:27;;;;;;;11.60;6.40;;;20.10;99.90;;;;;;5025684;28;20026;-57
2023/03/04 11:13:05;;;;;;;12.43;7.20;;;20.10;99.90;;;;;;5014657;28;20559;-57
2023/03/04 11:15:48;;;;;;;15.93;7.22;;;20.10;99.90;;;;;;5019515;28;20084;-58
2023/03/04 11:18:16;;;;;;;11.95;6.82;;;20.20;99.90;;;;;;5009929;28;20384;-57
2023/03/04 11:20:48;;;;;;;8.43;6.90;;;20.30;99.90;;;;;;5021427;28;20105;-57
2023/03/04 11:23:29;;;;;;;9.82;6.50;;;20.30;99.90;;;;;;5024808;28;20034;-57
2023/03/04 11:26:02;;;;;;;15.13;7.38;;;20.30;99.90;;;;;;5006038;28;20022;-57
2023/03/04 11:28:51;;;;;;;14.88;7.80;;;20.40;99.90;;;;;;5020455;28;20842;-58
2023/03/04 11:31:26;;;;;;;12.65;7.57;;;20.50;99.90;;;;;;5020317;28;20026;-57
2023/03/04 11:34:30;;;;;;;14.25;7.28;;;20.50;99.90;;;;;;5022647;28;20029;-58
2023/03/04 11:37:05;;;;;;;9.75;7.22;;;20.60;99.90;;;;;;5020354;28;20029;-58
2023/03/04 11:39:37;;;;;;;9.73;6.75;;;20.70;99.90;;;;;;5016408;28;20026;-57
2023/03/04 11:42:31;;;;;;;12.00;7.75;;;20.70;99.90;;;;;;5026091;28;20018;-57
2023/03/04 11:44:56;;;;;;;12.30;7.38;;;20.80;99.90;;;;;;5025566;28;20044;-57
2023/03/04 11:47:43;;;;;;;10.35;7.65;;;20.80;99.90;;;;;;5018954;28;20030;-57
2023/03/04 11:50:15;;;;;;;13.20;7.78;;;20.80;99.90;;;;;;5023109;28;20033;-57
2023/03/04 11:52:49;;;;;;;10.40;7.30;;;20.90;99.90;;;;;;5023699;28;20083;-57
2023/03/04 11:55:30;;;;;;;9.38;6.82;;;21.00;99.90;;;;;;5029700;28;20021;-57
2023/03/04 11:57:59;;;;;;;10.48;7.57;;;21.00;99.90;;;;;;5020144;28;20030;-58
2023/03/04 12:00:32;;;;;;;14.27;7.22;;;21.00;99.90;;;;;;5014459;28;20392;-59
2023/03/04 12:03:18;;;;;;;8.63;6.70;;;21.10;99.90;;;;;;5016445;28;20084;-58
2023/03/04 12:06:11;;;;;;;9.15;6.70;;;21.10;99.90;;;;;;5004296;28;20084;-58
2023/03/04 12:08:58;;;;;;;10.32;6.70;;;21.10;99.90;;;;;;5022206;28;20030;-58
2023/03/04 12:11:55;;;;;;;8.82;6.82;;;21.20;99.90;;;;;;5019604;28;20044;-59
2023/03/04 12:14:33;;;;;;;9.30;6.65;;;21.20;99.90;;;;;;5020405;28;20049;-58
2023/03/04 12:17:02;;;;;;;10.48;4.93;;;21.30;99.90;;;;;;5024135;28;20501;-63
2023/03/04 12:19:55;;;;;;;7.88;2.88;;;21.30;99.90;;;;;;5022587;28;20025;-62
2023/03/04 12:22:47;;;;;;;5.45;2.97;;;21.30;99.90;;;;;;5012115;28;20021;-63
2023/03/04 12:25:31;;;;;;;4.57;2.50;;;21.40;99.90;;;;;;4987761;28;20054;-62
2023/03/04 12:28:10;;;;;;;5.68;2.92;;;21.40;99.90;;;;;;5023429;28;20113;-61
2023/03/04 12:31:03;;;;;;;5.43;2.38;;;21.50;99.90;;;;;;5020986;28;20056;-60
2023/03/04 12:33:50;;;;;;;3.50;2.33;;;21.50;99.90;;;;;;5018853;28;20030;-58
2023/03/04 12:36:34;;;;;;;7.28;2.60;;;21.60;99.90;;;;;;5021916;28;20029;-58
2023/03/04 12:39:19;;;;;;;4.78;3.42;;;21.60;99.90;;;;;;5020026;28;20028;-63
2023/03/04 12:42:10;;;;;;;5.68;2.33;;;21.70;99.90;;;;;;5018083;28;20029;-62
2023/03/04 12:44:53;;;;;;;4.43;2.65;;;21.70;99.90;;;;;;5018634;28;20071;-60
2023/03/04 12:47:27;;;;;;;7.20;3.10;;;21.70;99.90;;;;;;5016588;28;20018;-63
2023/03/04 12:50:06;;;;;;;4.90;2.67;;;21.70;99.90;;;;;;5019552;28;20033;-59
2023/03/04 12:53:10;;;;;;;4.88;2.97;;;21.70;99.90;;;;;;5024500;28;20108;-62
2023/03/04 12:55:39;;;;;;;3.88;2.70;;;21.70;99.90;;;;;;5016560;28;20414;-61
2023/03/04 12:58:12;;;;;;;7.38;3.10;;;21.70;99.90;;;;;;5016422;28;20030;-61
2023/03/04 13:00:41;;;;;;;5.05;3.10;;;21.60;99.90;;;;;;5020338;28;20057;-61
2023/03/04 13:03:20;;;;;;;4.55;3.25;;;21.70;99.90;;;;;;5024992;28;20521;-61